X  Sluiten METAR luchtvaart weer gegevens      EHDL Deelen Air Base
Temperatuur
12°C Temperatuur
11°C Dauwpunt
94% Vochtigheid



Wind
5 KM/U
3 MPH
1 M/S
3 KTS



310°
NW
Huidig weer

Lichte Motregen Lichte Motregen
Luchtdruk 1016.93 (hPa) - 30.03 (inHg)
Zicht 6 (mijl) - 9.7 (km)
Vliegveld
Vliegveld code EHDL

Locatie : Deelen Air Base
Afstand: 14 (km)

Metar:
EHDL 272055Z AUTO 31003KT 290V010 9999 -DZ FEW015CB BKN051 OVC058 12/11 Q1017 REDZ BLU

Tijd: 27-05-2024 22:55 CEST